Airfield :
LOGIN :

Register | Disclaimer

   EN    FR    IT 

 










Legend :    VFR   Marginal VFR   IFR   Intensive IFR   Very Intensive IFR
Visi :
Ceiling :
>= 8 km
>= 3000ft
5 to 8 km
1000 to 3000 ft
1500m to 5 km
500 to 1000 ft
800 to 1500m
200 to 500 ft
< 800m
< 200 ft
Symbols :   Thunderstorms  Fog  Heavy snow  Heavy precipitations  Wind > 20 kt
SIGMETs :     Misc.  Thunderstorms  Icing  Turbulence  Mountain Waves  Volcanic Ashes






- Airport Elevation : 598 ft
- IATA code : BQH


EGKB - Biggin Hill

CURRENT METAR :
  • 040950Z 23015G27KT 200V260 9999 BKN009 16/15 Q1011

EXPIRED METARs :
  • 040920Z 22012KT 200V260 9000 -DZ SCT007 BKN010 16/15 Q1011
  • 040850Z 22013KT 200V260 9999 BKN010 16/15 Q1011
  • 040820Z 22013KT 9999 BKN005 16/15 Q1012
  • 040750Z 22012KT 190V250 9999 BKN005 15/15 Q1011
  • 040720Z 21015KT 190V250 9999 2500S -DZ BKN004 15/15 Q1011
  • 040650Z 21016KT 9999 -DZ BKN005 15/15 Q1011

TAF TAF EGKB
Valid from the 04 at 09:00 until the 04 at 18:00 UTC


040753Z 0409/0418 22015KT 9999 BKN010
TEMPO 0409/0414 22015G25KT 4000 RADZ BKN004
PROB40
TEMPO 0414/0418 BKN018



MET'MAP, your aeronautical weather chart ! - Copyright ORBIFLY December 2007 - Disclaimer

ORBIFLY MET'MAP TEAM :

Programming & Development : Alexandra Zaïnal
Concept & original design : Baudouin d'Aumeries
Assistance for programming : Marc-Olivier Méhu
Technical & hardware support : Manuel Goepfert

Contact : metmap@orbifly.com




SOURCES & CREDITS :

   NOAA